Portada
METAR-TAF:

METAR-TAF

Aeroports :

Xi'an, Xina

latitud: 34-26N, longitud: 108-45E, altitud: 479 m

Observació

L'informe es va fer fa 13 minuts, a les 21:00 UTC
Vent 4 kt del Nord-Est
Temperatura 26°C
Humitat 79%
Pressió 1009 hPa
Visibilitat 10 km o més
sense núvols per sota de 1500 mi sense presència de cumulonimbus.

METAR: ZLXY 142100Z 04002MPS CAVOK 26/22 Q1009 NOSIG

Hora: 05:13 (21:13 UTC)

Pronòstic

L'informe es va fer fa 5 hores i 50 minuts, a les 15:23 UTC
Pronòstic vàlid del 14 a les 18 UTC al 15 a les 18 UTC
Vent 6 kt del Est/Nord-Est
Visibilitat: 4000 m
calitja

TAF: ZLXY 141523Z 1418/1518 06003MPS 4000 HZ NSC TX36/1508Z TN24/1421Z

Observacions i pronòstics meteorològics de més de 4000 aeroports (METAR i TAF).

Les estacions disponibles són els punts grocs i vermells al mapa.

Posi el ratolí al punt desitjat per veure el nom de l'estació.

Feu clic per veure les observacions i els pronòstics meteorològics.

Per canviar el mapa: feu clic els botons verds amb una creu de color negre per apropar; al botó verd amb un guió per allunyar la imatge; o en les fletxes verdes per a mapes adjacents.


METAR-TAF: